sensor_id;sensor_type;location;lat;lon;timestamp;P1;durP1;ratioP1;P2;durP2;ratioP2
29854;SDS011;16733;48.738;9.106;2022-12-07T00:01:23;9.57;;;4.65;;
29854;SDS011;16733;48.738;9.106;2022-12-07T00:03:53;8.48;;;4.28;;
29854;SDS011;16733;48.738;9.106;2022-12-07T00:06:22;8.02;;;4.30;;
29854;SDS011;16733;48.738;9.106;2022-12-07T00:08:48;8.82;;;4.53;;
29854;SDS011;16733;48.738;9.106;2022-12-07T00:11:17;8.80;;;3.88;;
29854;SDS011;16733;48.738;9.106;2022-12-07T00:13:45;9.13;;;4.45;;
29854;SDS011;16733;48.738;9.106;2022-12-07T00:16:12;6.10;;;3.97;;
29854;SDS011;16733;48.738;9.106;2022-12-07T00:18:40;8.63;;;5.30;;
29854;SDS011;16733;48.738;9.106;2022-12-07T00:21:09;8.95;;;4.30;;
29854;SDS011;16733;48.738;9.106;2022-12-07T00:23:36;8.48;;;4.10;;
29854;SDS011;16733;48.738;9.106;2022-12-07T00:26:03;7.75;;;4.22;;
29854;SDS011;16733;48.738;9.106;2022-12-07T00:28:29;6.65;;;4.38;;
29854;SDS011;16733;48.738;9.106;2022-12-07T00:31:02;8.23;;;4.90;;
29854;SDS011;16733;48.738;9.106;2022-12-07T00:33:29;8.55;;;4.65;;
29854;SDS011;16733;48.738;9.106;2022-12-07T00:35:58;8.02;;;5.43;;
29854;SDS011;16733;48.738;9.106;2022-12-07T00:38:26;8.10;;;4.63;;
29854;SDS011;16733;48.738;9.106;2022-12-07T00:40:54;5.95;;;3.97;;
29854;SDS011;16733;48.738;9.106;2022-12-07T00:43:21;9.35;;;4.32;;
29854;SDS011;16733;48.738;9.106;2022-12-07T00:45:46;9.13;;;4.57;;
29854;SDS011;16733;48.738;9.106;2022-12-07T00:48:12;7.40;;;4.55;;
29854;SDS011;16733;48.738;9.106;2022-12-07T00:50:37;8.20;;;4.25;;
29854;SDS011;16733;48.738;9.106;2022-12-07T00:53:03;10.70;;;4.55;;
29854;SDS011;16733;48.738;9.106;2022-12-07T00:55:32;8.80;;;4.60;;
29854;SDS011;16733;48.738;9.106;2022-12-07T00:57:58;9.80;;;5.40;;
29854;SDS011;16733;48.738;9.106;2022-12-07T01:00:23;9.25;;;4.70;;
29854;SDS011;16733;48.738;9.106;2022-12-07T01:02:49;10.23;;;5.15;;
29854;SDS011;16733;48.738;9.106;2022-12-07T01:05:15;8.95;;;4.88;;
29854;SDS011;16733;48.738;9.106;2022-12-07T01:07:40;9.07;;;5.10;;
29854;SDS011;16733;48.738;9.106;2022-12-07T01:10:06;11.07;;;4.43;;
29854;SDS011;16733;48.738;9.106;2022-12-07T01:12:32;10.93;;;5.13;;
29854;SDS011;16733;48.738;9.106;2022-12-07T01:14:58;8.43;;;4.60;;
29854;SDS011;16733;48.738;9.106;2022-12-07T01:17:23;8.48;;;4.85;;
29854;SDS011;16733;48.738;9.106;2022-12-07T01:19:49;8.27;;;4.85;;
29854;SDS011;16733;48.738;9.106;2022-12-07T01:22:14;11.00;;;5.30;;
29854;SDS011;16733;48.738;9.106;2022-12-07T01:24:43;7.82;;;4.25;;
29854;SDS011;16733;48.738;9.106;2022-12-07T01:27:08;9.27;;;5.18;;
29854;SDS011;16733;48.738;9.106;2022-12-07T01:29:34;11.85;;;5.90;;
29854;SDS011;16733;48.738;9.106;2022-12-07T01:31:59;10.10;;;4.78;;
29854;SDS011;16733;48.738;9.106;2022-12-07T01:34:25;11.60;;;5.03;;
29854;SDS011;16733;48.738;9.106;2022-12-07T01:36:51;11.15;;;5.53;;
29854;SDS011;16733;48.738;9.106;2022-12-07T01:39:16;6.85;;;4.50;;
29854;SDS011;16733;48.738;9.106;2022-12-07T01:41:42;16.45;;;5.18;;
29854;SDS011;16733;48.738;9.106;2022-12-07T01:54:53;9.82;;;5.45;;
29854;SDS011;16733;48.738;9.106;2022-12-07T01:57:22;8.75;;;4.85;;
29854;SDS011;16733;48.738;9.106;2022-12-07T01:59:49;10.00;;;5.22;;
29854;SDS011;16733;48.738;9.106;2022-12-07T02:02:23;9.98;;;4.80;;
29854;SDS011;16733;48.738;9.106;2022-12-07T02:04:52;9.30;;;5.13;;
29854;SDS011;16733;48.738;9.106;2022-12-07T02:07:20;10.00;;;4.88;;
29854;SDS011;16733;48.738;9.106;2022-12-07T02:09:47;11.13;;;5.28;;
29854;SDS011;16733;48.738;9.106;2022-12-07T02:12:13;9.82;;;5.50;;
29854;SDS011;16733;48.738;9.106;2022-12-07T02:14:39;10.57;;;5.25;;
29854;SDS011;16733;48.738;9.106;2022-12-07T02:17:15;13.18;;;5.53;;
29854;SDS011;16733;48.738;9.106;2022-12-07T02:20:17;11.75;;;5.50;;
29854;SDS011;16733;48.738;9.106;2022-12-07T02:23:19;11.60;;;5.72;;
29854;SDS011;16733;48.738;9.106;2022-12-07T02:31:36;9.93;;;5.22;;
29854;SDS011;16733;48.738;9.106;2022-12-07T02:34:19;10.07;;;5.18;;
29854;SDS011;16733;48.738;9.106;2022-12-07T02:36:55;12.10;;;5.28;;
29854;SDS011;16733;48.738;9.106;2022-12-07T02:39:31;7.82;;;4.57;;
29854;SDS011;16733;48.738;9.106;2022-12-07T02:42:28;9.07;;;5.00;;
29854;SDS011;16733;48.738;9.106;2022-12-07T02:44:57;13.90;;;5.30;;
29854;SDS011;16733;48.738;9.106;2022-12-07T02:47:25;7.97;;;4.95;;
29854;SDS011;16733;48.738;9.106;2022-12-07T02:49:53;11.85;;;4.93;;
29854;SDS011;16733;48.738;9.106;2022-12-07T02:52:22;11.65;;;5.55;;
29854;SDS011;16733;48.738;9.106;2022-12-07T02:54:47;11.93;;;5.75;;
29854;SDS011;16733;48.738;9.106;2022-12-07T02:57:17;10.45;;;5.57;;
29854;SDS011;16733;48.738;9.106;2022-12-07T03:05:36;9.40;;;4.50;;
29854;SDS011;16733;48.738;9.106;2022-12-07T03:11:03;8.73;;;4.88;;
29854;SDS011;16733;48.738;9.106;2022-12-07T03:16:23;9.27;;;5.00;;
29854;SDS011;16733;48.738;9.106;2022-12-07T03:19:11;16.73;;;5.38;;
29854;SDS011;16733;48.738;9.106;2022-12-07T03:21:43;9.15;;;5.03;;
29854;SDS011;16733;48.738;9.106;2022-12-07T03:24:18;9.75;;;4.95;;
29854;SDS011;16733;48.738;9.106;2022-12-07T03:26:48;9.15;;;5.03;;
29854;SDS011;16733;48.738;9.106;2022-12-07T03:29:19;8.88;;;4.78;;
29854;SDS011;16733;48.738;9.106;2022-12-07T03:32:01;12.68;;;5.30;;
29854;SDS011;16733;48.738;9.106;2022-12-07T03:34:44;10.18;;;4.97;;
29854;SDS011;16733;48.738;9.106;2022-12-07T03:37:33;9.02;;;4.88;;
29854;SDS011;16733;48.738;9.106;2022-12-07T03:42:27;9.20;;;4.53;;
29854;SDS011;16733;48.738;9.106;2022-12-07T03:44:53;9.10;;;5.00;;
29854;SDS011;16733;48.738;9.106;2022-12-07T03:47:26;8.50;;;4.80;;
29854;SDS011;16733;48.738;9.106;2022-12-07T03:52:58;9.68;;;4.78;;
29854;SDS011;16733;48.738;9.106;2022-12-07T03:55:30;10.90;;;5.03;;
29854;SDS011;16733;48.738;9.106;2022-12-07T03:58:00;7.72;;;4.72;;
29854;SDS011;16733;48.738;9.106;2022-12-07T04:00:29;11.95;;;5.28;;
29854;SDS011;16733;48.738;9.106;2022-12-07T04:02:55;9.13;;;4.72;;
29854;SDS011;16733;48.738;9.106;2022-12-07T04:05:21;10.05;;;4.47;;
29854;SDS011;16733;48.738;9.106;2022-12-07T04:07:47;8.52;;;4.78;;
29854;SDS011;16733;48.738;9.106;2022-12-07T04:10:12;15.30;;;4.95;;
29854;SDS011;16733;48.738;9.106;2022-12-07T04:12:38;10.05;;;5.25;;
29854;SDS011;16733;48.738;9.106;2022-12-07T04:15:04;9.55;;;4.72;;
29854;SDS011;16733;48.738;9.106;2022-12-07T04:17:30;9.93;;;5.32;;
29854;SDS011;16733;48.738;9.106;2022-12-07T04:19:56;8.60;;;5.45;;
29854;SDS011;16733;48.738;9.106;2022-12-07T04:22:21;7.90;;;4.28;;
29854;SDS011;16733;48.738;9.106;2022-12-07T04:24:47;9.75;;;4.72;;
29854;SDS011;16733;48.738;9.106;2022-12-07T04:27:12;8.57;;;4.10;;
29854;SDS011;16733;48.738;9.106;2022-12-07T04:29:38;7.53;;;4.22;;
29854;SDS011;16733;48.738;9.106;2022-12-07T04:32:04;8.68;;;4.53;;
29854;SDS011;16733;48.738;9.106;2022-12-07T04:34:29;7.95;;;4.32;;
29854;SDS011;16733;48.738;9.106;2022-12-07T04:36:55;6.95;;;3.78;;
29854;SDS011;16733;48.738;9.106;2022-12-07T04:39:22;10.02;;;4.53;;
29854;SDS011;16733;48.738;9.106;2022-12-07T04:41:51;7.70;;;4.07;;
29854;SDS011;16733;48.738;9.106;2022-12-07T04:44:17;8.25;;;4.57;;
29854;SDS011;16733;48.738;9.106;2022-12-07T04:46:43;8.90;;;4.55;;
29854;SDS011;16733;48.738;9.106;2022-12-07T04:49:10;8.63;;;4.10;;
29854;SDS011;16733;48.738;9.106;2022-12-07T04:51:36;7.85;;;4.13;;
29854;SDS011;16733;48.738;9.106;2022-12-07T04:54:02;5.07;;;3.15;;
29854;SDS011;16733;48.738;9.106;2022-12-07T04:56:28;8.13;;;4.05;;
29854;SDS011;16733;48.738;9.106;2022-12-07T04:58:53;7.43;;;4.22;;
29854;SDS011;16733;48.738;9.106;2022-12-07T05:01:20;7.35;;;3.78;;
29854;SDS011;16733;48.738;9.106;2022-12-07T05:03:46;6.68;;;4.13;;
29854;SDS011;16733;48.738;9.106;2022-12-07T05:06:12;6.95;;;3.33;;
29854;SDS011;16733;48.738;9.106;2022-12-07T05:08:38;3.88;;;2.45;;
29854;SDS011;16733;48.738;9.106;2022-12-07T05:11:05;4.00;;;2.50;;
29854;SDS011;16733;48.738;9.106;2022-12-07T05:13:31;3.92;;;2.42;;
29854;SDS011;16733;48.738;9.106;2022-12-07T05:15:57;5.38;;;2.63;;
29854;SDS011;16733;48.738;9.106;2022-12-07T05:18:23;5.32;;;2.72;;
29854;SDS011;16733;48.738;9.106;2022-12-07T05:20:49;5.30;;;2.95;;
29854;SDS011;16733;48.738;9.106;2022-12-07T05:23:15;7.43;;;3.72;;
29854;SDS011;16733;48.738;9.106;2022-12-07T05:25:42;6.82;;;3.42;;
29854;SDS011;16733;48.738;9.106;2022-12-07T05:28:07;5.93;;;3.15;;
29854;SDS011;16733;48.738;9.106;2022-12-07T05:30:33;4.25;;;2.95;;
29854;SDS011;16733;48.738;9.106;2022-12-07T05:32:58;5.13;;;3.33;;
29854;SDS011;16733;48.738;9.106;2022-12-07T05:35:24;7.05;;;3.67;;
29854;SDS011;16733;48.738;9.106;2022-12-07T05:37:50;5.82;;;3.58;;
29854;SDS011;16733;48.738;9.106;2022-12-07T05:40:15;8.20;;;3.92;;
29854;SDS011;16733;48.738;9.106;2022-12-07T05:42:42;6.55;;;3.40;;
29854;SDS011;16733;48.738;9.106;2022-12-07T05:45:08;6.75;;;3.60;;
29854;SDS011;16733;48.738;9.106;2022-12-07T05:47:34;7.55;;;3.67;;
29854;SDS011;16733;48.738;9.106;2022-12-07T05:50:00;5.25;;;2.88;;
29854;SDS011;16733;48.738;9.106;2022-12-07T05:52:26;6.50;;;3.10;;
29854;SDS011;16733;48.738;9.106;2022-12-07T05:54:52;5.38;;;3.13;;
29854;SDS011;16733;48.738;9.106;2022-12-07T05:57:18;5.97;;;3.53;;
29854;SDS011;16733;48.738;9.106;2022-12-07T05:59:43;6.75;;;3.55;;
29854;SDS011;16733;48.738;9.106;2022-12-07T06:02:10;6.30;;;3.25;;
29854;SDS011;16733;48.738;9.106;2022-12-07T06:04:38;5.65;;;2.95;;
29854;SDS011;16733;48.738;9.106;2022-12-07T06:07:09;13.18;;;3.70;;
29854;SDS011;16733;48.738;9.106;2022-12-07T06:09:35;5.78;;;3.33;;
29854;SDS011;16733;48.738;9.106;2022-12-07T06:12:01;6.50;;;3.28;;
29854;SDS011;16733;48.738;9.106;2022-12-07T06:14:46;5.50;;;3.10;;
29854;SDS011;16733;48.738;9.106;2022-12-07T06:17:12;7.00;;;3.38;;
29854;SDS011;16733;48.738;9.106;2022-12-07T06:19:39;5.93;;;3.50;;
29854;SDS011;16733;48.738;9.106;2022-12-07T06:22:05;5.13;;;3.05;;
29854;SDS011;16733;48.738;9.106;2022-12-07T06:24:32;5.95;;;3.42;;
29854;SDS011;16733;48.738;9.106;2022-12-07T06:26:57;10.80;;;3.80;;
29854;SDS011;16733;48.738;9.106;2022-12-07T06:29:23;6.40;;;3.33;;
29854;SDS011;16733;48.738;9.106;2022-12-07T06:31:49;6.57;;;3.55;;
29854;SDS011;16733;48.738;9.106;2022-12-07T06:34:17;5.53;;;3.22;;
29854;SDS011;16733;48.738;9.106;2022-12-07T06:36:45;6.72;;;3.60;;
29854;SDS011;16733;48.738;9.106;2022-12-07T06:39:16;7.35;;;3.92;;
29854;SDS011;16733;48.738;9.106;2022-12-07T06:41:41;10.35;;;3.58;;
29854;SDS011;16733;48.738;9.106;2022-12-07T06:44:07;6.25;;;3.22;;
29854;SDS011;16733;48.738;9.106;2022-12-07T06:46:33;6.38;;;3.53;;
29854;SDS011;16733;48.738;9.106;2022-12-07T06:49:00;6.70;;;3.65;;
29854;SDS011;16733;48.738;9.106;2022-12-07T06:51:26;9.80;;;3.67;;
29854;SDS011;16733;48.738;9.106;2022-12-07T06:53:51;11.48;;;3.65;;
29854;SDS011;16733;48.738;9.106;2022-12-07T06:56:17;7.30;;;3.53;;
29854;SDS011;16733;48.738;9.106;2022-12-07T06:58:42;6.40;;;3.63;;
29854;SDS011;16733;48.738;9.106;2022-12-07T07:01:12;8.25;;;3.58;;
29854;SDS011;16733;48.738;9.106;2022-12-07T07:03:39;4.85;;;3.13;;
29854;SDS011;16733;48.738;9.106;2022-12-07T07:06:05;5.70;;;3.28;;
29854;SDS011;16733;48.738;9.106;2022-12-07T07:08:32;6.78;;;3.45;;
29854;SDS011;16733;48.738;9.106;2022-12-07T07:10:58;7.82;;;3.63;;
29854;SDS011;16733;48.738;9.106;2022-12-07T07:13:24;6.15;;;3.78;;
29854;SDS011;16733;48.738;9.106;2022-12-07T07:15:49;5.82;;;3.45;;
29854;SDS011;16733;48.738;9.106;2022-12-07T07:18:15;5.85;;;3.47;;
29854;SDS011;16733;48.738;9.106;2022-12-07T07:20:41;7.10;;;2.97;;
29854;SDS011;16733;48.738;9.106;2022-12-07T07:23:06;7.68;;;3.67;;
29854;SDS011;16733;48.738;9.106;2022-12-07T07:25:32;7.43;;;3.47;;
29854;SDS011;16733;48.738;9.106;2022-12-07T07:27:58;8.13;;;3.45;;
29854;SDS011;16733;48.738;9.106;2022-12-07T07:30:24;5.05;;;2.88;;
29854;SDS011;16733;48.738;9.106;2022-12-07T07:32:50;6.43;;;3.78;;
29854;SDS011;16733;48.738;9.106;2022-12-07T07:35:15;4.75;;;2.83;;
29854;SDS011;16733;48.738;9.106;2022-12-07T07:37:41;8.18;;;3.03;;
29854;SDS011;16733;48.738;9.106;2022-12-07T07:40:07;6.07;;;3.63;;
29854;SDS011;16733;48.738;9.106;2022-12-07T07:42:34;6.32;;;3.40;;
29854;SDS011;16733;48.738;9.106;2022-12-07T07:44:59;5.40;;;3.33;;
29854;SDS011;16733;48.738;9.106;2022-12-07T07:47:25;6.05;;;3.10;;
29854;SDS011;16733;48.738;9.106;2022-12-07T07:49:50;8.70;;;4.55;;
29854;SDS011;16733;48.738;9.106;2022-12-07T07:52:16;7.05;;;3.45;;
29854;SDS011;16733;48.738;9.106;2022-12-07T07:54:41;6.78;;;4.15;;
29854;SDS011;16733;48.738;9.106;2022-12-07T07:57:07;6.57;;;3.35;;
29854;SDS011;16733;48.738;9.106;2022-12-07T07:59:32;7.40;;;3.60;;
29854;SDS011;16733;48.738;9.106;2022-12-07T08:01:58;5.78;;;3.28;;
29854;SDS011;16733;48.738;9.106;2022-12-07T08:04:24;7.95;;;3.42;;
29854;SDS011;16733;48.738;9.106;2022-12-07T08:06:50;8.25;;;3.35;;
29854;SDS011;16733;48.738;9.106;2022-12-07T08:09:16;5.28;;;3.15;;
29854;SDS011;16733;48.738;9.106;2022-12-07T08:11:42;11.57;;;4.63;;
29854;SDS011;16733;48.738;9.106;2022-12-07T08:14:07;7.72;;;3.85;;
29854;SDS011;16733;48.738;9.106;2022-12-07T08:16:34;8.40;;;3.53;;
29854;SDS011;16733;48.738;9.106;2022-12-07T08:19:00;7.60;;;3.60;;
29854;SDS011;16733;48.738;9.106;2022-12-07T08:21:25;6.70;;;3.53;;
29854;SDS011;16733;48.738;9.106;2022-12-07T08:23:51;4.95;;;3.00;;
29854;SDS011;16733;48.738;9.106;2022-12-07T08:26:17;7.15;;;3.22;;
29854;SDS011;16733;48.738;9.106;2022-12-07T08:28:43;5.97;;;3.40;;
29854;SDS011;16733;48.738;9.106;2022-12-07T08:31:11;6.72;;;3.75;;
29854;SDS011;16733;48.738;9.106;2022-12-07T08:33:39;9.90;;;3.33;;
29854;SDS011;16733;48.738;9.106;2022-12-07T08:36:07;7.43;;;3.88;;
29854;SDS011;16733;48.738;9.106;2022-12-07T08:38:35;7.70;;;3.47;;
29854;SDS011;16733;48.738;9.106;2022-12-07T08:41:01;6.70;;;3.47;;
29854;SDS011;16733;48.738;9.106;2022-12-07T08:43:27;6.45;;;3.00;;
29854;SDS011;16733;48.738;9.106;2022-12-07T08:45:56;7.22;;;3.08;;
29854;SDS011;16733;48.738;9.106;2022-12-07T08:48:40;8.35;;;3.80;;
29854;SDS011;16733;48.738;9.106;2022-12-07T08:51:30;6.30;;;3.05;;
29854;SDS011;16733;48.738;9.106;2022-12-07T08:53:55;6.32;;;3.22;;
29854;SDS011;16733;48.738;9.106;2022-12-07T08:56:25;5.88;;;3.65;;
29854;SDS011;16733;48.738;9.106;2022-12-07T08:58:51;5.57;;;3.05;;
29854;SDS011;16733;48.738;9.106;2022-12-07T09:01:18;6.53;;;3.13;;
29854;SDS011;16733;48.738;9.106;2022-12-07T09:03:43;7.28;;;3.25;;
29854;SDS011;16733;48.738;9.106;2022-12-07T09:06:09;6.80;;;3.22;;
29854;SDS011;16733;48.738;9.106;2022-12-07T09:08:36;6.50;;;3.20;;
29854;SDS011;16733;48.738;9.106;2022-12-07T09:11:05;5.22;;;2.97;;
29854;SDS011;16733;48.738;9.106;2022-12-07T09:13:31;7.32;;;3.60;;
29854;SDS011;16733;48.738;9.106;2022-12-07T09:15:57;7.25;;;3.97;;
29854;SDS011;16733;48.738;9.106;2022-12-07T09:18:22;6.57;;;3.03;;
29854;SDS011;16733;48.738;9.106;2022-12-07T09:20:49;5.60;;;3.08;;
29854;SDS011;16733;48.738;9.106;2022-12-07T09:23:15;7.60;;;3.40;;
29854;SDS011;16733;48.738;9.106;2022-12-07T09:25:41;5.25;;;3.25;;
29854;SDS011;16733;48.738;9.106;2022-12-07T09:28:06;10.27;;;3.80;;
29854;SDS011;16733;48.738;9.106;2022-12-07T09:30:32;6.40;;;3.40;;
29854;SDS011;16733;48.738;9.106;2022-12-07T09:32:57;7.75;;;3.47;;
29854;SDS011;16733;48.738;9.106;2022-12-07T09:35:23;9.75;;;3.55;;
29854;SDS011;16733;48.738;9.106;2022-12-07T09:37:49;6.20;;;3.13;;
29854;SDS011;16733;48.738;9.106;2022-12-07T09:40:16;4.72;;;2.70;;
29854;SDS011;16733;48.738;9.106;2022-12-07T09:42:51;5.22;;;2.70;;
29854;SDS011;16733;48.738;9.106;2022-12-07T09:45:21;5.00;;;2.75;;
29854;SDS011;16733;48.738;9.106;2022-12-07T09:47:49;5.60;;;3.10;;
29854;SDS011;16733;48.738;9.106;2022-12-07T09:50:16;4.18;;;2.42;;
29854;SDS011;16733;48.738;9.106;2022-12-07T09:52:47;4.95;;;2.67;;
29854;SDS011;16733;48.738;9.106;2022-12-07T09:55:15;6.10;;;2.75;;
29854;SDS011;16733;48.738;9.106;2022-12-07T09:57:44;4.97;;;2.45;;
29854;SDS011;16733;48.738;9.106;2022-12-07T10:00:12;4.72;;;2.42;;
29854;SDS011;16733;48.738;9.106;2022-12-07T10:02:40;5.68;;;2.50;;
29854;SDS011;16733;48.738;9.106;2022-12-07T10:05:22;7.35;;;2.40;;
29854;SDS011;16733;48.738;9.106;2022-12-07T10:07:51;5.90;;;3.08;;
29854;SDS011;16733;48.738;9.106;2022-12-07T10:10:24;5.47;;;2.70;;
29854;SDS011;16733;48.738;9.106;2022-12-07T10:15:21;10.10;;;2.30;;
29854;SDS011;16733;48.738;9.106;2022-12-07T10:17:48;5.10;;;2.67;;
29854;SDS011;16733;48.738;9.106;2022-12-07T10:20:25;4.68;;;2.53;;
29854;SDS011;16733;48.738;9.106;2022-12-07T10:23:02;7.85;;;2.95;;
29854;SDS011;16733;48.738;9.106;2022-12-07T10:25:31;5.40;;;2.63;;
29854;SDS011;16733;48.738;9.106;2022-12-07T10:30:24;3.85;;;2.20;;
29854;SDS011;16733;48.738;9.106;2022-12-07T10:32:50;4.38;;;2.63;;
29854;SDS011;16733;48.738;9.106;2022-12-07T10:37:50;3.60;;;2.10;;
29854;SDS011;16733;48.738;9.106;2022-12-07T10:40:29;4.65;;;2.30;;
29854;SDS011;16733;48.738;9.106;2022-12-07T10:43:02;4.20;;;2.17;;
29854;SDS011;16733;48.738;9.106;2022-12-07T11:01:48;4.70;;;2.60;;
29854;SDS011;16733;48.738;9.106;2022-12-07T11:10:15;5.35;;;2.35;;
29854;SDS011;16733;48.738;9.106;2022-12-07T11:16:01;4.18;;;2.65;;
29854;SDS011;16733;48.738;9.106;2022-12-07T11:18:29;7.28;;;3.22;;
29854;SDS011;16733;48.738;9.106;2022-12-07T11:21:14;6.88;;;2.63;;
29854;SDS011;16733;48.738;9.106;2022-12-07T11:24:10;4.43;;;2.50;;
29854;SDS011;16733;48.738;9.106;2022-12-07T11:29:49;3.78;;;2.58;;
29854;SDS011;16733;48.738;9.106;2022-12-07T11:35:09;3.88;;;2.33;;
29854;SDS011;16733;48.738;9.106;2022-12-07T11:37:44;5.30;;;2.10;;
29854;SDS011;16733;48.738;9.106;2022-12-07T11:40:14;4.43;;;2.33;;
29854;SDS011;16733;48.738;9.106;2022-12-07T11:43:04;4.05;;;2.40;;
29854;SDS011;16733;48.738;9.106;2022-12-07T11:45:43;5.10;;;2.15;;
29854;SDS011;16733;48.738;9.106;2022-12-07T11:50:41;6.65;;;2.95;;
29854;SDS011;16733;48.738;9.106;2022-12-07T12:06:32;3.50;;;2.00;;
29854;SDS011;16733;48.738;9.106;2022-12-07T12:09:04;3.88;;;2.17;;
29854;SDS011;16733;48.738;9.106;2022-12-07T12:11:47;3.72;;;2.10;;
29854;SDS011;16733;48.738;9.106;2022-12-07T12:22:43;3.42;;;2.20;;
29854;SDS011;16733;48.738;9.106;2022-12-07T12:27:55;4.88;;;2.15;;
29854;SDS011;16733;48.738;9.106;2022-12-07T12:30:25;2.83;;;1.63;;
29854;SDS011;16733;48.738;9.106;2022-12-07T12:32:51;1.75;;;1.40;;
29854;SDS011;16733;48.738;9.106;2022-12-07T12:35:33;3.92;;;2.28;;
29854;SDS011;16733;48.738;9.106;2022-12-07T12:40:52;5.35;;;2.95;;
29854;SDS011;16733;48.738;9.106;2022-12-07T12:49:38;7.75;;;3.60;;
29854;SDS011;16733;48.738;9.106;2022-12-07T12:51:48;6.35;;;3.70;;
29854;SDS011;16733;48.738;9.106;2022-12-07T12:54:15;8.00;;;3.20;;
29854;SDS011;16733;48.738;9.106;2022-12-07T12:56:47;4.85;;;3.15;;
29854;SDS011;16733;48.738;9.106;2022-12-07T13:01:54;5.50;;;2.95;;
29854;SDS011;16733;48.738;9.106;2022-12-07T13:04:34;5.50;;;2.42;;
29854;SDS011;16733;48.738;9.106;2022-12-07T13:23:21;3.50;;;2.08;;
29854;SDS011;16733;48.738;9.106;2022-12-07T13:25:55;3.25;;;2.15;;
29854;SDS011;16733;48.738;9.106;2022-12-07T13:28:23;5.35;;;2.33;;
29854;SDS011;16733;48.738;9.106;2022-12-07T13:33:29;5.72;;;2.00;;
29854;SDS011;16733;48.738;9.106;2022-12-07T13:35:55;4.47;;;2.30;;
29854;SDS011;16733;48.738;9.106;2022-12-07T13:38:32;3.70;;;2.35;;
29854;SDS011;16733;48.738;9.106;2022-12-07T13:41:21;4.32;;;1.90;;
29854;SDS011;16733;48.738;9.106;2022-12-07T13:46:19;8.70;;;1.90;;
29854;SDS011;16733;48.738;9.106;2022-12-07T13:48:51;1.25;;;1.13;;
29854;SDS011;16733;48.738;9.106;2022-12-07T13:51:18;1.83;;;1.73;;
29854;SDS011;16733;48.738;9.106;2022-12-07T13:53:52;3.80;;;1.67;;
29854;SDS011;16733;48.738;9.106;2022-12-07T13:56:27;6.45;;;1.88;;
29854;SDS011;16733;48.738;9.106;2022-12-07T13:59:00;4.32;;;2.22;;
29854;SDS011;16733;48.738;9.106;2022-12-07T14:01:26;3.67;;;2.10;;
29854;SDS011;16733;48.738;9.106;2022-12-07T14:03:53;2.85;;;1.90;;
29854;SDS011;16733;48.738;9.106;2022-12-07T14:11:52;2.72;;;1.70;;
29854;SDS011;16733;48.738;9.106;2022-12-07T14:14:25;3.35;;;2.05;;
29854;SDS011;16733;48.738;9.106;2022-12-07T14:16:56;3.17;;;2.08;;
29854;SDS011;16733;48.738;9.106;2022-12-07T14:27:37;4.63;;;2.10;;
29854;SDS011;16733;48.738;9.106;2022-12-07T14:30:04;3.10;;;1.83;;
29854;SDS011;16733;48.738;9.106;2022-12-07T14:32:30;5.25;;;2.13;;
29854;SDS011;16733;48.738;9.106;2022-12-07T14:35:03;4.03;;;2.10;;
29854;SDS011;16733;48.738;9.106;2022-12-07T14:37:35;5.50;;;2.15;;
29854;SDS011;16733;48.738;9.106;2022-12-07T14:40:02;5.47;;;2.40;;
29854;SDS011;16733;48.738;9.106;2022-12-07T14:42:28;5.97;;;2.28;;
29854;SDS011;16733;48.738;9.106;2022-12-07T14:44:56;3.58;;;2.40;;
29854;SDS011;16733;48.738;9.106;2022-12-07T14:47:22;3.22;;;2.08;;
29854;SDS011;16733;48.738;9.106;2022-12-07T14:49:49;4.90;;;2.60;;
29854;SDS011;16733;48.738;9.106;2022-12-07T14:52:15;5.03;;;2.58;;
29854;SDS011;16733;48.738;9.106;2022-12-07T14:54:46;5.28;;;2.50;;
29854;SDS011;16733;48.738;9.106;2022-12-07T14:57:12;4.68;;;2.70;;
29854;SDS011;16733;48.738;9.106;2022-12-07T14:59:37;4.68;;;2.60;;
29854;SDS011;16733;48.738;9.106;2022-12-07T15:02:03;5.38;;;3.25;;
29854;SDS011;16733;48.738;9.106;2022-12-07T15:04:30;5.90;;;2.70;;
29854;SDS011;16733;48.738;9.106;2022-12-07T15:06:56;5.60;;;3.13;;
29854;SDS011;16733;48.738;9.106;2022-12-07T15:09:26;5.90;;;2.60;;
29854;SDS011;16733;48.738;9.106;2022-12-07T15:11:52;6.78;;;2.80;;
29854;SDS011;16733;48.738;9.106;2022-12-07T15:14:17;9.90;;;2.92;;
29854;SDS011;16733;48.738;9.106;2022-12-07T15:16:43;14.43;;;3.70;;
29854;SDS011;16733;48.738;9.106;2022-12-07T15:19:13;5.95;;;3.47;;
29854;SDS011;16733;48.738;9.106;2022-12-07T15:21:40;7.50;;;4.03;;
29854;SDS011;16733;48.738;9.106;2022-12-07T15:24:07;17.15;;;3.70;;
29854;SDS011;16733;48.738;9.106;2022-12-07T15:26:34;5.53;;;2.97;;
29854;SDS011;16733;48.738;9.106;2022-12-07T15:29:00;8.90;;;3.22;;
29854;SDS011;16733;48.738;9.106;2022-12-07T15:31:26;9.52;;;3.53;;
29854;SDS011;16733;48.738;9.106;2022-12-07T15:33:51;6.38;;;3.30;;
29854;SDS011;16733;48.738;9.106;2022-12-07T15:36:24;4.55;;;2.47;;
29854;SDS011;16733;48.738;9.106;2022-12-07T15:38:52;5.53;;;2.90;;
29854;SDS011;16733;48.738;9.106;2022-12-07T15:41:17;4.43;;;2.83;;
29854;SDS011;16733;48.738;9.106;2022-12-07T15:43:44;10.13;;;3.45;;
29854;SDS011;16733;48.738;9.106;2022-12-07T15:46:29;8.13;;;3.17;;
29854;SDS011;16733;48.738;9.106;2022-12-07T15:48:56;8.85;;;3.03;;
29854;SDS011;16733;48.738;9.106;2022-12-07T15:51:22;7.75;;;3.90;;
29854;SDS011;16733;48.738;9.106;2022-12-07T15:53:47;9.02;;;4.88;;
29854;SDS011;16733;48.738;9.106;2022-12-07T15:56:13;5.68;;;3.60;;
29854;SDS011;16733;48.738;9.106;2022-12-07T15:58:38;7.97;;;4.15;;
29854;SDS011;16733;48.738;9.106;2022-12-07T16:01:11;7.45;;;4.35;;
29854;SDS011;16733;48.738;9.106;2022-12-07T16:03:38;11.77;;;4.45;;
29854;SDS011;16733;48.738;9.106;2022-12-07T16:06:03;8.35;;;3.67;;
29854;SDS011;16733;48.738;9.106;2022-12-07T16:08:30;6.28;;;3.85;;
29854;SDS011;16733;48.738;9.106;2022-12-07T16:10:55;6.00;;;4.07;;
29854;SDS011;16733;48.738;9.106;2022-12-07T16:13:21;12.20;;;4.63;;
29854;SDS011;16733;48.738;9.106;2022-12-07T16:15:46;6.78;;;3.72;;
29854;SDS011;16733;48.738;9.106;2022-12-07T16:18:12;7.55;;;3.70;;
29854;SDS011;16733;48.738;9.106;2022-12-07T16:20:38;4.72;;;3.15;;
29854;SDS011;16733;48.738;9.106;2022-12-07T16:23:04;7.95;;;3.95;;
29854;SDS011;16733;48.738;9.106;2022-12-07T16:25:30;7.22;;;4.07;;
29854;SDS011;16733;48.738;9.106;2022-12-07T16:27:55;8.15;;;4.07;;
29854;SDS011;16733;48.738;9.106;2022-12-07T16:30:21;6.82;;;3.30;;
29854;SDS011;16733;48.738;9.106;2022-12-07T16:32:47;7.80;;;3.85;;
29854;SDS011;16733;48.738;9.106;2022-12-07T16:35:12;7.38;;;3.75;;
29854;SDS011;16733;48.738;9.106;2022-12-07T16:37:38;7.05;;;3.88;;
29854;SDS011;16733;48.738;9.106;2022-12-07T16:40:06;8.18;;;4.07;;
29854;SDS011;16733;48.738;9.106;2022-12-07T16:42:32;10.02;;;4.30;;
29854;SDS011;16733;48.738;9.106;2022-12-07T16:44:59;6.60;;;3.67;;
29854;SDS011;16733;48.738;9.106;2022-12-07T16:47:25;9.63;;;4.63;;
29854;SDS011;16733;48.738;9.106;2022-12-07T16:49:51;7.30;;;4.32;;
29854;SDS011;16733;48.738;9.106;2022-12-07T16:52:17;6.82;;;3.53;;
29854;SDS011;16733;48.738;9.106;2022-12-07T16:54:44;14.25;;;4.15;;
29854;SDS011;16733;48.738;9.106;2022-12-07T16:57:09;9.00;;;4.40;;
29854;SDS011;16733;48.738;9.106;2022-12-07T16:59:35;8.95;;;3.95;;
29854;SDS011;16733;48.738;9.106;2022-12-07T17:02:01;7.90;;;4.25;;
29854;SDS011;16733;48.738;9.106;2022-12-07T17:04:27;10.10;;;4.25;;
29854;SDS011;16733;48.738;9.106;2022-12-07T17:06:53;8.55;;;4.38;;
29854;SDS011;16733;48.738;9.106;2022-12-07T17:09:19;7.78;;;4.88;;
29854;SDS011;16733;48.738;9.106;2022-12-07T17:11:44;9.60;;;4.53;;
29854;SDS011;16733;48.738;9.106;2022-12-07T17:14:10;8.80;;;4.38;;
29854;SDS011;16733;48.738;9.106;2022-12-07T17:16:59;11.85;;;4.43;;
29854;SDS011;16733;48.738;9.106;2022-12-07T17:19:25;8.88;;;4.20;;